createdAt,value
2017-08-21T00:00:45.200Z,15.30
2017-08-21T00:03:14.252Z,15.20
2017-08-21T00:05:43.265Z,15.20
2017-08-21T00:08:12.310Z,15.20
2017-08-21T00:10:41.871Z,15.20
2017-08-21T00:13:10.917Z,15.20
2017-08-21T00:15:39.961Z,15.10
2017-08-21T00:18:08.980Z,15.10
2017-08-21T00:20:37.998Z,15.10
2017-08-21T00:23:07.062Z,15.30
2017-08-21T00:25:36.084Z,15.10
2017-08-21T00:28:05.173Z,15.00
2017-08-21T00:30:35.226Z,14.80
2017-08-21T00:33:04.441Z,14.90
2017-08-21T00:35:33.520Z,15.00
2017-08-21T00:38:02.696Z,15.00
2017-08-21T00:40:31.705Z,15.10
2017-08-21T00:43:00.802Z,15.10
2017-08-21T00:45:29.897Z,15.00
2017-08-21T00:47:59.837Z,14.90
2017-08-21T00:50:29.045Z,14.70
2017-08-21T00:52:58.025Z,14.50
2017-08-21T00:55:27.054Z,14.60
2017-08-21T00:57:56.188Z,14.60
2017-08-21T01:00:25.232Z,14.70
2017-08-21T01:02:54.301Z,14.70
2017-08-21T01:05:23.318Z,14.70
2017-08-21T01:07:52.365Z,14.60
2017-08-21T01:10:21.473Z,14.70
2017-08-21T01:12:50.481Z,14.60
2017-08-21T01:15:19.485Z,14.70
2017-08-21T01:17:48.486Z,14.50
2017-08-21T01:20:17.501Z,14.40
2017-08-21T01:22:46.504Z,14.30
2017-08-21T01:25:15.534Z,14.30
2017-08-21T01:27:44.777Z,14.30
2017-08-21T01:30:14.087Z,14.50
2017-08-21T01:32:43.162Z,14.70
2017-08-21T01:35:12.177Z,14.70
2017-08-21T01:37:41.387Z,14.80
2017-08-21T14:47:24.395Z,23.40
2017-08-21T14:49:53.956Z,23.60
2017-08-21T14:54:57.096Z,25.20
2017-08-21T14:57:26.714Z,24.60
2017-08-21T14:59:55.926Z,24.60
2017-08-21T15:05:04.590Z,23.20
2017-08-21T15:07:34.495Z,22.50
2017-08-21T15:15:14.952Z,21.90
2017-08-21T15:17:44.439Z,21.90
2017-08-21T15:20:13.838Z,21.70
2017-08-21T15:22:44.743Z,22.10
2017-08-21T15:42:11.078Z,22.80
2017-08-21T15:44:42.079Z,23.00
2017-08-21T15:49:46.090Z,23.10
2017-08-21T16:02:42.470Z,22.30
2017-08-21T16:07:54.080Z,21.20
2017-08-21T16:10:27.655Z,21.20
2017-08-21T16:15:31.018Z,20.90
2017-08-21T16:23:15.953Z,20.50
2017-08-21T16:37:12.959Z,20.20
2017-08-21T16:48:18.891Z,19.70
2017-08-21T16:53:37.100Z,19.40
2017-08-21T16:56:11.130Z,19.50
2017-08-21T16:58:46.170Z,19.60
2017-08-21T17:01:21.443Z,19.60
2017-08-21T17:09:03.405Z,19.40
2017-08-21T17:19:16.759Z,19.20
2017-08-21T17:24:20.671Z,18.90
2017-08-21T17:32:02.535Z,18.90
2017-08-21T17:37:14.654Z,18.70
2017-08-21T17:39:43.921Z,18.70
2017-08-21T17:42:13.382Z,18.60
2017-08-21T17:44:43.378Z,18.60
2017-08-21T17:47:12.760Z,18.70
2017-08-21T17:49:43.984Z,18.70
2017-08-21T17:52:13.330Z,18.60
2017-08-21T17:54:42.745Z,18.50
2017-08-21T17:57:12.020Z,18.50
2017-08-21T17:59:42.175Z,18.40
2017-08-21T18:02:11.737Z,18.40
2017-08-21T18:04:41.119Z,18.40
2017-08-21T18:07:12.212Z,18.40
2017-08-21T18:09:42.711Z,18.30
2017-08-21T18:12:12.566Z,18.10
2017-08-21T18:14:42.612Z,18.10
2017-08-21T18:17:12.594Z,18.00
2017-08-21T18:19:41.667Z,18.00
2017-08-21T18:22:10.853Z,18.00
2017-08-21T18:24:39.923Z,18.10
2017-08-21T18:27:08.990Z,18.10
2017-08-21T18:29:38.408Z,18.00
2017-08-21T18:32:07.566Z,17.90
2017-08-21T18:34:36.938Z,18.00
2017-08-21T18:37:06.520Z,17.90
2017-08-21T18:39:36.919Z,17.70
2017-08-21T18:42:07.148Z,17.70
2017-08-21T18:44:36.528Z,17.70
2017-08-21T18:47:05.784Z,17.70
2017-08-21T18:49:34.928Z,17.70
2017-08-21T18:52:04.913Z,17.60
2017-08-21T18:54:34.343Z,17.50
2017-08-21T18:57:04.685Z,17.60
2017-08-21T19:02:07.958Z,17.60
2017-08-21T19:04:37.197Z,17.60
2017-08-21T19:07:06.809Z,17.50
2017-08-21T19:09:35.976Z,17.30
2017-08-21T19:12:05.482Z,17.40
2017-08-21T19:14:35.370Z,17.30
2017-08-21T19:17:04.776Z,17.30
2017-08-21T19:19:34.211Z,17.30
2017-08-21T19:22:03.449Z,17.30
2017-08-21T19:24:33.410Z,17.20
2017-08-21T19:27:02.585Z,17.10
2017-08-21T19:29:32.010Z,17.10
2017-08-21T19:32:01.552Z,17.10
2017-08-21T19:34:59.402Z,17.10
2017-08-21T19:37:28.738Z,17.10
2017-08-21T19:40:01.235Z,17.10
2017-08-21T19:42:30.415Z,17.00
2017-08-21T19:45:00.323Z,17.00
2017-08-21T19:47:29.613Z,17.00
2017-08-21T19:49:58.713Z,17.00
2017-08-21T19:55:03.660Z,16.90
2017-08-21T19:57:32.803Z,16.90
2017-08-21T20:00:02.014Z,16.80
2017-08-21T20:02:31.130Z,16.80
2017-08-21T20:05:00.470Z,16.80
2017-08-21T20:07:29.804Z,16.70
2017-08-21T20:09:59.187Z,16.70
2017-08-21T20:12:28.327Z,16.50
2017-08-21T20:14:57.482Z,16.50
2017-08-21T20:17:26.651Z,16.50
2017-08-21T20:19:55.691Z,16.50
2017-08-21T20:22:26.849Z,16.40
2017-08-21T20:24:56.536Z,16.30
2017-08-21T20:27:25.834Z,16.30
2017-08-21T20:29:55.015Z,16.30
2017-08-21T20:32:24.920Z,16.20
2017-08-21T20:34:54.196Z,16.30
2017-08-21T20:37:23.509Z,16.20
2017-08-21T20:39:52.628Z,16.10
2017-08-21T20:42:21.946Z,16.20
2017-08-21T20:44:51.066Z,16.20
2017-08-21T20:47:20.226Z,16.20
2017-08-21T20:49:49.371Z,16.10
2017-08-21T20:52:18.506Z,16.10
2017-08-21T20:54:48.145Z,16.00
2017-08-21T20:57:17.462Z,15.90
2017-08-21T20:59:46.559Z,15.90
2017-08-21T21:02:15.690Z,15.80
2017-08-21T21:04:44.962Z,15.80
2017-08-21T21:07:14.040Z,15.80
